Webcam

2018/02/25 02:50 EBBR 250250Z 08009KT CAVOK M03/M10 Q1025 NOSIG

Webcam

--- Refresh now ---